sim
Sign-in with your pilot id or email,
or register
Callsign
Passwort

Schedule Details

Flight Number: RYR2975 (1)
Departure: Brussels South Charleroi Airport (EBCI) at 17:55
Arrival: Bratislava M. R. Stefanik Airport (LZIB) at 19:40
Route: Ryanair Passenger Schedule. Enter filed route here before submitting Pirep.

Weather Information
Getting current METAR information for EBCI 280450Z AUTO 04010KT CAVOK 09/04 Q1033
Getting current METAR information for LZIB 280500Z 28005KT CAVOK 15/08 Q1025 NOSIG

Schedule Frequency

Route Map